Time;durP1;ratioP1;P1;durP2;ratioP2;P2;SDS_P1;SDS_P2;PMS_P1;PMS_P2;Temp;Humidity;BMP_temperature;BMP_pressure;BME280_temperature;BME280_humidity;BME280_pressure;Samples;Min_cycle;Max_cycle;Signal;HPM_P1;HPM_P2
2023/09/29 00:00:27;;;;;;;11.82;2.80;;;18.10;92.50;;;;;;4976283;28;20391;-82
2023/09/29 00:02:55;;;;;;;10.30;3.03;;;18.10;92.50;;;;;;4976150;28;20043;-82
2023/09/29 00:05:21;;;;;;;10.90;2.90;;;18.10;92.40;;;;;;4975891;28;20039;-82
2023/09/29 00:07:47;;;;;;;11.63;2.72;;;18.10;92.30;;;;;;4976538;28;20038;-81
2023/09/29 00:10:17;;;;;;;14.38;2.92;;;18.10;92.30;;;;;;4976292;28;20074;-82
2023/09/29 00:12:43;;;;;;;12.50;2.67;;;18.10;92.30;;;;;;4976159;28;20039;-83
2023/09/29 00:15:09;;;;;;;9.77;2.95;;;18.20;92.20;;;;;;4958319;28;20035;-82
2023/09/29 00:17:35;;;;;;;14.05;3.10;;;18.10;92.20;;;;;;4958219;28;20034;-82
2023/09/29 00:20:08;;;;;;;12.77;3.33;;;18.10;92.20;;;;;;4975906;28;20624;-83
2023/09/29 00:22:33;;;;;;;12.50;3.22;;;18.10;92.20;;;;;;4975920;28;20509;-83
2023/09/29 00:24:59;;;;;;;10.25;2.75;;;18.10;92.10;;;;;;4975989;28;20034;-82
2023/09/29 00:27:25;;;;;;;11.05;2.60;;;18.10;92.10;;;;;;4975708;28;20035;-83
2023/09/29 00:29:50;;;;;;;14.82;4.18;;;18.20;92.20;;;;;;4974844;28;20428;-82
2023/09/29 00:32:16;;;;;;;10.52;3.03;;;18.20;92.20;;;;;;4974246;28;20129;-83
2023/09/29 00:34:41;;;;;;;9.50;3.65;;;18.20;92.20;;;;;;4975690;28;20038;-82
2023/09/29 00:37:07;;;;;;;13.13;3.60;;;18.20;92.20;;;;;;4975391;28;20034;-82
2023/09/29 00:39:33;;;;;;;10.20;3.20;;;18.20;92.20;;;;;;4975474;28;20061;-83
2023/09/29 00:41:58;;;;;;;11.48;3.25;;;18.20;92.10;;;;;;4975464;28;20420;-82
2023/09/29 00:44:24;;;;;;;12.35;3.63;;;18.20;92.10;;;;;;4974883;28;20039;-82
2023/09/29 00:46:51;;;;;;;12.02;3.65;;;18.20;92.20;;;;;;4974295;28;20035;-82
2023/09/29 00:49:17;;;;;;;20.52;4.00;;;18.20;92.20;;;;;;4974880;28;20041;-77
2023/09/29 00:51:43;;;;;;;11.38;3.42;;;18.20;92.10;;;;;;4975342;28;20038;-78
2023/09/29 00:54:09;;;;;;;13.40;3.03;;;18.20;92.10;;;;;;4975474;28;20390;-78
2023/09/29 00:56:36;;;;;;;11.60;3.45;;;18.20;92.20;;;;;;4974768;28;20049;-78
2023/09/29 00:59:05;;;;;;;9.88;3.38;;;18.20;92.20;;;;;;4974786;28;20046;-78
2023/09/29 01:01:34;;;;;;;10.55;3.40;;;18.20;92.20;;;;;;4974427;28;20558;-78
2023/09/29 01:04:00;;;;;;;9.60;3.55;;;18.20;92.20;;;;;;4974745;28;20046;-78
2023/09/29 01:06:26;;;;;;;10.07;3.13;;;18.20;92.30;;;;;;4974917;28;20114;-78
2023/09/29 01:08:52;;;;;;;9.65;3.55;;;18.20;92.30;;;;;;4974935;28;20031;-78
2023/09/29 01:11:20;;;;;;;8.10;3.05;;;18.20;92.30;;;;;;4957300;28;20031;-78
2023/09/29 01:13:45;;;;;;;10.32;3.15;;;18.20;92.40;;;;;;4974195;28;20058;-78
2023/09/29 01:16:11;;;;;;;11.75;2.90;;;18.20;92.50;;;;;;4973281;28;20518;-77
2023/09/29 01:18:37;;;;;;;8.07;2.22;;;18.20;92.50;;;;;;4974870;28;20147;-78
2023/09/29 01:21:05;;;;;;;10.90;3.08;;;18.20;92.50;;;;;;4975298;28;20116;-78
2023/09/29 01:23:34;;;;;;;11.10;2.95;;;18.20;92.60;;;;;;4974926;28;20130;-77
2023/09/29 01:26:02;;;;;;;10.65;3.22;;;18.20;92.60;;;;;;4974892;28;20134;-78
2023/09/29 01:28:28;;;;;;;11.35;2.88;;;18.20;92.60;;;;;;4974800;28;20035;-81
2023/09/29 01:30:54;;;;;;;10.32;3.13;;;18.20;92.70;;;;;;4975301;28;20058;-81
2023/09/29 01:33:23;;;;;;;7.82;2.60;;;18.20;92.70;;;;;;4976916;28;20090;-80
2023/09/29 01:35:50;;;;;;;9.45;3.30;;;18.20;92.80;;;;;;4974459;28;20109;-80
2023/09/29 01:38:15;;;;;;;11.10;2.53;;;18.20;92.70;;;;;;4974674;28;20027;-80
2023/09/29 01:40:44;;;;;;;9.13;2.63;;;18.20;92.70;;;;;;4973293;28;20037;-81
2023/09/29 01:43:10;;;;;;;5.85;1.85;;;18.20;92.70;;;;;;4974322;28;20033;-81
2023/09/29 01:45:38;;;;;;;11.05;3.03;;;18.30;92.90;;;;;;4974538;28;20043;-81
2023/09/29 01:48:04;;;;;;;9.63;2.53;;;18.20;92.60;;;;;;4974075;28;20070;-80
2023/09/29 01:50:33;;;;;;;11.63;2.83;;;18.20;92.70;;;;;;4974687;28;20027;-81
2023/09/29 01:52:58;;;;;;;9.10;2.95;;;18.20;92.70;;;;;;4974315;28;20027;-80
2023/09/29 01:55:24;;;;;;;8.88;2.80;;;18.30;92.70;;;;;;4974160;28;20062;-80
2023/09/29 01:57:53;;;;;;;7.88;1.92;;;18.30;93.00;;;;;;4956557;28;20040;-81
2023/09/29 02:00:24;;;;;;;9.18;2.30;;;18.30;92.80;;;;;;4956688;28;20039;-81
2023/09/29 02:02:51;;;;;;;10.13;2.20;;;18.30;92.80;;;;;;4974195;28;20034;-81
2023/09/29 02:05:17;;;;;;;10.10;3.08;;;18.30;92.80;;;;;;4956808;28;20043;-82
2023/09/29 02:07:44;;;;;;;8.45;2.95;;;18.30;92.80;;;;;;4973915;28;20533;-82
2023/09/29 02:10:10;;;;;;;8.52;2.45;;;18.40;92.80;;;;;;4973839;28;20142;-82
2023/09/29 02:12:53;;;;;;;11.23;2.53;;;18.40;92.80;;;;;;4974750;28;20031;-82
2023/09/29 02:15:19;;;;;;;10.60;3.35;;;18.40;92.80;;;;;;4960618;28;20066;-82
2023/09/29 02:17:47;;;;;;;8.75;2.20;;;18.40;92.80;;;;;;4978013;28;20031;-84
2023/09/29 02:20:39;;;;;;;8.68;2.33;;;18.40;92.80;;;;;;4978245;28;20035;-83
2023/09/29 02:23:02;;;;;;;7.80;2.33;;;18.40;92.80;;;;;;4977078;28;20046;-83
2023/09/29 02:25:28;;;;;;;8.45;2.58;;;18.40;92.70;;;;;;4977678;28;20038;-82
2023/09/29 02:27:56;;;;;;;6.32;2.53;;;18.40;92.80;;;;;;4960338;28;20562;-83
2023/09/29 02:30:24;;;;;;;11.48;3.33;;;18.50;92.80;;;;;;4977857;28;20110;-82
2023/09/29 02:32:53;;;;;;;10.73;2.97;;;18.50;92.80;;;;;;4978123;28;20118;-83
2023/09/29 02:35:19;;;;;;;9.70;3.17;;;18.50;92.80;;;;;;4977826;28;20031;-82
2023/09/29 02:37:46;;;;;;;8.20;2.83;;;18.50;92.80;;;;;;4960289;28;20043;-82
2023/09/29 02:40:12;;;;;;;7.82;2.50;;;18.50;92.70;;;;;;4977386;28;20031;-83
2023/09/29 02:42:39;;;;;;;8.73;2.92;;;18.40;92.70;;;;;;4960313;28;20074;-78
2023/09/29 02:45:06;;;;;;;10.02;3.20;;;18.50;92.70;;;;;;4977838;28;20431;-81
2023/09/29 02:47:31;;;;;;;7.15;2.97;;;18.50;92.70;;;;;;4977085;28;20042;-81
2023/09/29 02:49:58;;;;;;;8.73;2.97;;;18.50;92.60;;;;;;4975993;28;20494;-80
2023/09/29 02:52:26;;;;;;;7.68;2.83;;;18.50;92.60;;;;;;4977512;28;20043;-81
2023/09/29 02:54:54;;;;;;;9.80;3.00;;;18.50;92.50;;;;;;4976963;28;20125;-80
2023/09/29 02:57:20;;;;;;;6.05;2.17;;;18.50;92.50;;;;;;4959613;28;20073;-81
2023/09/29 02:59:46;;;;;;;6.72;2.28;;;18.50;92.40;;;;;;4978029;28;20051;-81
2023/09/29 03:02:12;;;;;;;6.22;2.53;;;18.40;92.40;;;;;;4977236;28;20500;-82
2023/09/29 03:04:43;;;;;;;6.28;2.83;;;18.40;92.30;;;;;;4977365;28;20063;-81
2023/09/29 03:07:09;;;;;;;5.30;2.63;;;18.40;92.20;;;;;;4976093;28;20059;-82
2023/09/29 03:09:36;;;;;;;6.60;2.17;;;18.40;92.10;;;;;;4976788;28;20478;-82
2023/09/29 03:12:01;;;;;;;9.18;2.45;;;18.40;92.10;;;;;;4959656;28;20030;-83
2023/09/29 03:14:27;;;;;;;7.95;2.53;;;18.40;92.00;;;;;;4959710;28;20038;-81
2023/09/29 03:16:58;;;;;;;10.93;3.55;;;18.40;92.00;;;;;;4959845;28;20047;-82
2023/09/29 03:19:24;;;;;;;6.93;2.80;;;18.40;92.00;;;;;;4959623;28;20062;-81
2023/09/29 03:21:50;;;;;;;7.85;2.58;;;18.40;91.90;;;;;;4977766;28;20045;-81
2023/09/29 03:24:16;;;;;;;8.82;2.92;;;18.40;91.90;;;;;;4975792;28;20038;-81
2023/09/29 03:26:42;;;;;;;8.20;2.78;;;18.40;91.90;;;;;;4975592;28;20435;-81
2023/09/29 03:29:07;;;;;;;7.22;2.40;;;18.50;91.90;;;;;;4976433;28;20034;-81
2023/09/29 03:31:33;;;;;;;6.15;2.25;;;18.50;91.80;;;;;;4976624;28;20063;-80
2023/09/29 03:34:01;;;;;;;5.90;2.03;;;18.50;91.90;;;;;;4976611;28;20074;-80
2023/09/29 03:36:27;;;;;;;8.18;1.88;;;18.50;91.80;;;;;;4976719;28;20106;-81
2023/09/29 03:38:54;;;;;;;7.40;2.15;;;18.50;91.80;;;;;;4976565;28;20049;-81
2023/09/29 03:41:20;;;;;;;6.13;2.22;;;18.50;91.80;;;;;;4976709;28;20046;-83
2023/09/29 03:43:46;;;;;;;5.25;2.17;;;18.50;91.80;;;;;;4976605;28;20041;-82
2023/09/29 03:46:21;;;;;;;9.80;3.47;;;18.50;91.80;;;;;;4976630;28;20446;-82
2023/09/29 03:48:47;;;;;;;6.88;2.03;;;18.50;91.80;;;;;;4975868;28;20174;-82
2023/09/29 03:51:24;;;;;;;6.38;2.28;;;18.50;91.70;;;;;;4958838;28;20118;-81
2023/09/29 03:53:50;;;;;;;5.95;1.90;;;18.50;91.80;;;;;;4958732;28;20072;-82
2023/09/29 03:56:16;;;;;;;4.85;1.90;;;18.50;91.80;;;;;;4976172;28;20042;-82
2023/09/29 03:58:44;;;;;;;6.00;2.00;;;18.50;91.80;;;;;;4959254;28;20069;-82
2023/09/29 04:01:09;;;;;;;6.57;2.40;;;18.50;91.70;;;;;;4959371;28;20041;-82
2023/09/29 04:03:35;;;;;;;4.72;1.77;;;18.50;91.80;;;;;;4976135;28;20558;-80
2023/09/29 04:06:01;;;;;;;8.50;2.42;;;18.50;91.80;;;;;;4958188;28;20042;-82
2023/09/29 04:08:26;;;;;;;6.47;2.05;;;18.50;91.80;;;;;;4975883;28;20034;-82
2023/09/29 04:10:55;;;;;;;8.25;2.58;;;18.60;91.80;;;;;;4976174;28;20425;-82
2023/09/29 04:13:21;;;;;;;7.38;2.03;;;18.60;91.80;;;;;;4975983;28;20050;-82
2023/09/29 04:15:47;;;;;;;5.22;1.85;;;18.60;91.80;;;;;;4975955;28;20027;-84
2023/09/29 04:18:12;;;;;;;6.40;1.77;;;18.60;91.80;;;;;;4975831;28;20102;-82
2023/09/29 04:20:38;;;;;;;8.82;2.25;;;18.60;91.80;;;;;;4958163;28;20035;-83
2023/09/29 04:23:06;;;;;;;5.75;2.05;;;18.60;91.80;;;;;;4958469;28;20037;-82
2023/09/29 04:25:32;;;;;;;5.50;1.42;;;18.60;91.80;;;;;;4957999;28;20043;-82
2023/09/29 04:27:58;;;;;;;5.30;1.40;;;18.60;91.80;;;;;;4975630;28;20042;-82
2023/09/29 04:30:24;;;;;;;4.38;1.73;;;18.60;91.80;;;;;;4975568;28;20376;-82
2023/09/29 04:32:52;;;;;;;5.15;1.70;;;18.60;91.90;;;;;;4975319;28;20031;-82
2023/09/29 04:35:18;;;;;;;6.78;1.70;;;18.60;91.90;;;;;;4956941;28;20039;-83
2023/09/29 04:37:45;;;;;;;5.53;1.55;;;18.60;91.90;;;;;;4975738;28;20521;-82
2023/09/29 04:40:12;;;;;;;6.18;2.00;;;18.60;92.00;;;;;;4975403;28;20081;-82
2023/09/29 04:42:38;;;;;;;5.28;1.83;;;18.70;92.00;;;;;;4957965;28;20039;-83
2023/09/29 04:45:06;;;;;;;7.95;1.77;;;18.70;92.10;;;;;;4975413;28;20057;-82
2023/09/29 04:47:32;;;;;;;6.25;1.35;;;18.70;92.10;;;;;;4975327;28;20090;-82
2023/09/29 04:49:58;;;;;;;4.70;1.65;;;18.70;92.10;;;;;;4974729;28;20027;-82
2023/09/29 04:52:25;;;;;;;6.97;1.95;;;18.70;92.10;;;;;;4958483;28;20065;-81
2023/09/29 04:54:50;;;;;;;4.65;1.42;;;18.70;92.20;;;;;;4975337;28;20402;-82
2023/09/29 04:57:16;;;;;;;6.10;2.05;;;18.70;92.20;;;;;;4975018;28;20426;-82
2023/09/29 04:59:42;;;;;;;3.58;1.30;;;18.80;92.60;;;;;;4973699;28;20031;-81
2023/09/29 05:02:08;;;;;;;6.93;1.40;;;18.80;92.40;;;;;;4957603;28;20031;-82
2023/09/29 05:04:33;;;;;;;5.47;1.92;;;18.80;92.40;;;;;;4974933;28;20038;-81
2023/09/29 05:06:59;;;;;;;7.25;1.67;;;18.80;92.40;;;;;;4975263;28;20499;-81
2023/09/29 05:09:25;;;;;;;6.53;1.40;;;18.80;92.50;;;;;;4957331;28;20023;-83
2023/09/29 05:11:50;;;;;;;2.72;1.10;;;18.80;92.50;;;;;;4974874;28;20046;-81
2023/09/29 05:14:16;;;;;;;7.30;1.48;;;18.90;92.50;;;;;;4975211;28;20039;-82
2023/09/29 05:16:42;;;;;;;5.13;1.40;;;18.90;92.60;;;;;;4957805;28;20483;-83
2023/09/29 05:19:07;;;;;;;3.50;1.40;;;18.90;92.60;;;;;;4975065;28;20090;-82
2023/09/29 05:21:33;;;;;;;5.05;1.30;;;18.90;92.60;;;;;;4974930;28;20031;-82
2023/09/29 05:23:59;;;;;;;3.25;1.20;;;18.90;92.70;;;;;;4974971;28;20042;-82
2023/09/29 05:26:25;;;;;;;4.85;1.80;;;18.90;92.70;;;;;;4957357;28;20376;-83
2023/09/29 05:28:53;;;;;;;4.10;1.50;;;18.90;92.70;;;;;;4974662;28;20125;-83
2023/09/29 05:31:19;;;;;;;3.33;1.33;;;19.00;92.80;;;;;;4957019;28;20443;-83
2023/09/29 05:33:44;;;;;;;7.97;1.63;;;19.00;92.90;;;;;;4957030;28;20026;-81
2023/09/29 05:36:10;;;;;;;3.03;1.05;;;19.00;92.90;;;;;;4957425;28;20073;-82
2023/09/29 05:38:36;;;;;;;4.60;1.85;;;19.00;92.90;;;;;;4974458;28;20039;-83
2023/09/29 05:41:02;;;;;;;6.88;1.90;;;19.10;93.00;;;;;;4974686;28;20474;-83
2023/09/29 05:43:27;;;;;;;4.13;1.60;;;19.00;93.10;;;;;;4974294;28;20050;-81
2023/09/29 05:45:53;;;;;;;6.05;1.55;;;19.00;93.10;;;;;;4974825;28;20086;-83
2023/09/29 05:48:19;;;;;;;3.83;1.40;;;19.00;93.30;;;;;;4973986;28;20093;-82
2023/09/29 05:50:44;;;;;;;6.55;1.80;;;19.10;93.50;;;;;;4974385;28;20070;-81
2023/09/29 05:53:11;;;;;;;6.32;1.48;;;19.10;93.50;;;;;;4982587;28;20134;-82
2023/09/29 05:55:37;;;;;;;3.78;1.48;;;19.10;93.50;;;;;;4975857;28;20046;-81
2023/09/29 05:58:03;;;;;;;2.97;1.27;;;19.10;93.50;;;;;;4974518;28;20039;-82
2023/09/29 06:00:29;;;;;;;3.28;1.20;;;19.20;93.50;;;;;;4974488;28;20570;-82
2023/09/29 06:02:55;;;;;;;2.78;1.23;;;19.20;93.60;;;;;;4974139;28;20041;-82
2023/09/29 06:05:21;;;;;;;3.17;1.48;;;19.20;93.70;;;;;;4974069;28;20042;-82
2023/09/29 06:07:47;;;;;;;4.00;1.80;;;19.20;93.60;;;;;;4974204;28;20479;-82
2023/09/29 06:10:13;;;;;;;3.53;1.30;;;19.20;93.60;;;;;;4974358;28;20027;-82
2023/09/29 06:12:38;;;;;;;3.45;1.63;;;19.20;93.70;;;;;;4974255;28;20038;-82
2023/09/29 06:15:05;;;;;;;5.38;1.63;;;19.20;93.70;;;;;;4956669;28;20046;-82
2023/09/29 06:17:31;;;;;;;4.43;1.20;;;19.20;93.80;;;;;;4974062;28;20031;-83
2023/09/29 06:19:57;;;;;;;4.35;1.58;;;19.30;93.90;;;;;;4973859;28;20546;-82
2023/09/29 06:22:23;;;;;;;4.75;1.38;;;19.30;93.80;;;;;;4956987;28;20118;-82
2023/09/29 06:24:49;;;;;;;4.95;1.63;;;19.30;93.90;;;;;;4974057;28;20109;-83
2023/09/29 06:27:15;;;;;;;7.10;1.73;;;19.40;94.10;;;;;;4974565;28;20518;-81
2023/09/29 06:29:40;;;;;;;3.53;1.77;;;19.40;94.00;;;;;;4973727;28;20109;-81
2023/09/29 06:32:09;;;;;;;3.97;1.95;;;19.40;94.00;;;;;;4956391;28;20033;-81
2023/09/29 06:34:35;;;;;;;4.68;1.58;;;19.40;94.00;;;;;;4974031;28;20042;-81
2023/09/29 06:37:01;;;;;;;4.03;1.67;;;19.40;94.00;;;;;;4973919;28;20030;-81
2023/09/29 06:39:27;;;;;;;3.75;1.42;;;19.40;94.00;;;;;;4973901;28;20035;-81
2023/09/29 06:41:53;;;;;;;4.43;1.65;;;19.40;94.00;;;;;;4978700;28;20042;-81
2023/09/29 06:44:18;;;;;;;3.05;1.20;;;19.50;94.10;;;;;;4979057;28;20046;-81
2023/09/29 06:46:44;;;;;;;4.13;1.50;;;19.50;94.10;;;;;;4977097;28;20094;-82
2023/09/29 06:49:09;;;;;;;3.83;1.70;;;19.40;94.10;;;;;;4973769;28;20109;-82
2023/09/29 06:51:36;;;;;;;3.88;1.70;;;19.40;94.10;;;;;;4973679;28;20035;-80
2023/09/29 06:54:02;;;;;;;3.97;1.25;;;19.40;94.20;;;;;;4973649;28;20035;-80
2023/09/29 06:56:28;;;;;;;3.38;1.35;;;19.50;94.20;;;;;;4974868;28;20054;-81
2023/09/29 06:58:57;;;;;;;3.53;1.55;;;19.50;94.30;;;;;;4983536;28;20026;-80
2023/09/29 07:01:27;;;;;;;3.92;1.80;;;19.50;94.30;;;;;;4970380;28;20039;-80
2023/09/29 07:03:53;;;;;;;4.78;1.50;;;19.60;94.40;;;;;;4986889;28;20034;-80
2023/09/29 07:06:23;;;;;;;6.10;1.55;;;19.50;94.40;;;;;;4961410;28;20046;-81
2023/09/29 07:08:49;;;;;;;6.70;1.85;;;19.50;94.40;;;;;;4977216;28;20035;-81
2023/09/29 07:11:14;;;;;;;4.78;1.75;;;19.60;94.50;;;;;;4959619;28;20027;-79
2023/09/29 07:13:40;;;;;;;3.55;1.45;;;19.60;94.50;;;;;;4959453;28;20027;-78
2023/09/29 07:16:06;;;;;;;2.78;1.27;;;19.60;94.50;;;;;;4961750;28;20548;-80
2023/09/29 07:18:31;;;;;;;8.55;2.08;;;19.60;94.60;;;;;;4989673;28;20045;-78
2023/09/29 07:20:57;;;;;;;4.28;1.75;;;19.60;94.60;;;;;;4978649;28;20072;-78
2023/09/29 07:23:23;;;;;;;3.97;1.70;;;19.60;94.60;;;;;;4996337;28;20085;-79
2023/09/29 07:25:52;;;;;;;4.32;1.63;;;19.70;94.60;;;;;;4995508;28;20101;-78
2023/09/29 07:28:22;;;;;;;4.15;1.40;;;19.70;94.60;;;;;;4996238;28;20036;-81
2023/09/29 07:30:49;;;;;;;4.60;1.67;;;19.80;94.70;;;;;;4996128;28;20033;-83
2023/09/29 07:33:14;;;;;;;5.00;1.58;;;19.80;94.70;;;;;;4995996;28;20030;-81
2023/09/29 07:35:42;;;;;;;4.70;1.60;;;19.90;94.70;;;;;;4996202;28;20394;-82
2023/09/29 07:38:08;;;;;;;5.95;1.90;;;20.00;94.70;;;;;;4978585;28;20419;-82
2023/09/29 07:40:34;;;;;;;4.75;1.60;;;20.00;94.70;;;;;;4996450;28;20061;-81
2023/09/29 07:43:00;;;;;;;4.60;1.80;;;20.00;94.60;;;;;;4978866;28;20422;-82
2023/09/29 07:45:26;;;;;;;6.68;1.67;;;20.00;94.60;;;;;;4995607;28;20053;-80
2023/09/29 07:47:52;;;;;;;4.70;2.17;;;20.10;94.60;;;;;;4995824;28;20026;-81
2023/09/29 07:50:19;;;;;;;6.30;1.60;;;20.10;94.60;;;;;;4995615;28;20039;-81
2023/09/29 07:52:45;;;;;;;4.00;1.42;;;20.10;94.60;;;;;;4978451;28;20541;-79
2023/09/29 07:55:11;;;;;;;6.63;1.55;;;20.10;94.60;;;;;;4995851;28;20227;-82
2023/09/29 07:57:37;;;;;;;4.72;1.52;;;20.20;94.60;;;;;;4995611;28;20046;-80
2023/09/29 08:00:08;;;;;;;4.18;1.58;;;20.20;94.60;;;;;;4977919;28;20030;-81
2023/09/29 08:02:34;;;;;;;5.13;1.25;;;20.20;94.60;;;;;;4995728;28;20122;-82
2023/09/29 08:05:00;;;;;;;5.13;1.50;;;20.30;94.60;;;;;;4995643;28;20058;-83
2023/09/29 08:07:27;;;;;;;5.70;1.50;;;20.30;94.60;;;;;;4995591;28;20042;-78
2023/09/29 08:09:53;;;;;;;5.95;1.50;;;20.40;94.50;;;;;;4978268;28;20118;-80
2023/09/29 08:12:19;;;;;;;3.70;1.30;;;20.40;94.50;;;;;;4977711;28;20034;-81
2023/09/29 08:14:45;;;;;;;4.13;1.17;;;20.50;94.50;;;;;;4995147;28;20109;-81
2023/09/29 08:17:11;;;;;;;4.20;1.30;;;20.50;94.50;;;;;;4977882;28;20034;-80
2023/09/29 08:19:37;;;;;;;3.42;1.25;;;20.60;94.40;;;;;;4995236;28;20489;-80
2023/09/29 08:22:03;;;;;;;3.90;1.23;;;20.60;94.40;;;;;;4995282;28;20035;-80
2023/09/29 08:24:32;;;;;;;5.32;1.50;;;20.70;94.30;;;;;;4995061;28;20451;-79
2023/09/29 08:27:00;;;;;;;3.75;1.15;;;20.80;94.30;;;;;;4989330;28;20043;-80
2023/09/29 08:29:26;;;;;;;5.35;1.23;;;20.90;94.30;;;;;;4980707;28;20035;-80
2023/09/29 08:31:53;;;;;;;5.18;1.20;;;20.90;94.10;;;;;;4975350;28;20110;-80
2023/09/29 08:34:19;;;;;;;3.00;0.98;;;21.00;94.10;;;;;;4975579;28;20027;-80
2023/09/29 08:36:45;;;;;;;3.30;1.15;;;21.10;94.00;;;;;;4975534;28;20070;-80
2023/09/29 08:39:11;;;;;;;8.15;1.98;;;21.20;93.90;;;;;;4975521;28;20070;-80
2023/09/29 08:41:45;;;;;;;5.95;1.67;;;21.30;93.80;;;;;;4975252;28;20062;-80
2023/09/29 08:44:17;;;;;;;2.63;1.05;;;21.40;93.60;;;;;;4975474;28;20479;-80
2023/09/29 08:46:47;;;;;;;4.43;1.10;;;21.50;93.50;;;;;;4958225;28;20570;-79
2023/09/29 08:49:16;;;;;;;5.90;1.38;;;21.60;93.30;;;;;;4957739;28;20308;-79
2023/09/29 08:51:46;;;;;;;5.43;1.40;;;21.60;93.20;;;;;;4957830;28;20113;-81
2023/09/29 08:54:13;;;;;;;3.28;1.20;;;21.70;93.00;;;;;;4975205;28;20027;-80
2023/09/29 08:56:39;;;;;;;3.97;1.30;;;21.80;92.80;;;;;;4974760;28;20046;-79
2023/09/29 08:59:05;;;;;;;3.33;1.13;;;21.90;92.70;;;;;;4957407;28;20031;-79
2023/09/29 09:01:32;;;;;;;3.50;0.95;;;22.00;92.70;;;;;;4974578;28;20082;-80
2023/09/29 09:03:57;;;;;;;5.82;1.27;;;22.10;92.70;;;;;;4977235;28;20133;-79
2023/09/29 09:06:25;;;;;;;3.75;1.13;;;22.10;92.60;;;;;;4985408;28;20130;-79
2023/09/29 09:08:54;;;;;;;3.75;1.00;;;22.20;92.40;;;;;;4982468;28;20123;-80
2023/09/29 09:11:19;;;;;;;3.08;1.30;;;22.20;92.00;;;;;;4984434;28;20482;-80
2023/09/29 09:13:59;;;;;;;4.32;1.00;;;22.30;92.00;;;;;;4981751;28;20066;-80
2023/09/29 09:16:28;;;;;;;7.28;1.90;;;22.30;91.60;;;;;;4982876;28;20030;-79
2023/09/29 09:18:54;;;;;;;6.38;1.15;;;22.30;91.60;;;;;;4974366;28;20027;-79
2023/09/29 09:21:31;;;;;;;4.00;1.05;;;22.30;91.50;;;;;;4974041;28;20030;-81
2023/09/29 09:23:56;;;;;;;5.15;1.08;;;22.40;91.60;;;;;;4974952;28;20047;-80
2023/09/29 09:26:22;;;;;;;4.93;1.42;;;22.50;91.50;;;;;;4974220;28;20205;-80
2023/09/29 09:28:48;;;;;;;4.38;1.13;;;22.60;90.90;;;;;;4975161;28;20431;-80
2023/09/29 09:31:13;;;;;;;5.90;1.58;;;22.60;90.80;;;;;;4975243;28;20493;-79
2023/09/29 09:33:39;;;;;;;6.28;1.60;;;22.50;90.50;;;;;;4958334;28;20089;-81
2023/09/29 09:36:10;;;;;;;5.13;1.52;;;22.50;90.30;;;;;;4958411;28;20086;-80
2023/09/29 09:38:37;;;;;;;4.72;1.88;;;22.50;90.40;;;;;;4974589;28;20117;-81
2023/09/29 09:41:03;;;;;;;6.25;1.52;;;22.60;90.60;;;;;;4974301;28;20039;-82
2023/09/29 09:43:29;;;;;;;4.38;1.45;;;22.60;90.40;;;;;;4957040;28;20031;-81
2023/09/29 09:46:06;;;;;;;6.90;1.48;;;22.80;90.30;;;;;;4973951;28;20039;-81
2023/09/29 09:48:45;;;;;;;5.93;1.73;;;22.90;90.00;;;;;;4974289;28;20467;-82
2023/09/29 09:51:17;;;;;;;7.30;1.95;;;22.80;89.40;;;;;;4979300;28;20034;-82
2023/09/29 09:53:43;;;;;;;5.97;2.00;;;22.80;89.50;;;;;;4981527;28;20149;-82
2023/09/29 09:56:20;;;;;;;4.18;1.45;;;22.70;89.30;;;;;;4965681;28;20046;-82
2023/09/29 09:58:49;;;;;;;4.45;1.17;;;22.80;89.50;;;;;;4989274;28;20044;-82
2023/09/29 10:01:15;;;;;;;7.85;1.88;;;22.80;89.30;;;;;;4985290;28;20030;-85
2023/09/29 10:03:41;;;;;;;8.55;2.00;;;22.70;88.50;;;;;;4968811;28;20035;-83
2023/09/29 10:06:09;;;;;;;4.18;1.38;;;22.80;88.80;;;;;;4994427;28;20089;-82
2023/09/29 10:08:35;;;;;;;6.63;1.77;;;22.80;88.90;;;;;;4994031;28;20110;-82
2023/09/29 10:11:14;;;;;;;2.78;1.20;;;22.90;89.00;;;;;;4993672;28;20457;-84
2023/09/29 10:13:44;;;;;;;6.80;1.55;;;23.10;88.90;;;;;;4994597;28;20027;-82
2023/09/29 10:16:25;;;;;;;6.20;1.92;;;23.10;88.70;;;;;;4994150;28;20045;-83
2023/09/29 10:18:56;;;;;;;4.30;1.30;;;23.30;88.30;;;;;;4976975;28;20445;-83
2023/09/29 10:21:22;;;;;;;4.40;1.52;;;23.40;87.90;;;;;;4976093;28;20030;-78
2023/09/29 10:23:50;;;;;;;7.65;2.53;;;23.40;87.70;;;;;;4993236;28;20049;-78
2023/09/29 10:26:17;;;;;;;6.45;2.00;;;23.30;86.80;;;;;;4993042;28;20049;-79
2023/09/29 10:28:46;;;;;;;6.75;1.63;;;23.20;86.50;;;;;;4993330;28;20034;-78
2023/09/29 10:31:14;;;;;;;6.47;1.85;;;23.10;86.60;;;;;;4993541;28;20094;-78
2023/09/29 10:33:54;;;;;;;4.78;1.20;;;23.00;86.80;;;;;;4994350;28;20041;-78
2023/09/29 10:36:23;;;;;;;4.30;1.50;;;23.00;87.10;;;;;;4997095;28;20105;-78
2023/09/29 10:38:49;;;;;;;6.35;1.65;;;22.90;87.20;;;;;;4996975;28;20486;-78
2023/09/29 10:41:16;;;;;;;4.50;1.38;;;22.80;87.40;;;;;;4979916;28;20454;-78
2023/09/29 10:43:48;;;;;;;5.40;1.42;;;22.70;87.70;;;;;;4996916;28;20037;-78
2023/09/29 10:46:16;;;;;;;5.90;1.10;;;22.70;88.50;;;;;;4979564;28;20046;-78
2023/09/29 10:48:49;;;;;;;3.40;1.17;;;22.60;89.10;;;;;;4996847;28;20482;-76
2023/09/29 10:51:22;;;;;;;3.13;1.10;;;22.60;89.50;;;;;;4996936;28;20034;-77
2023/09/29 10:53:48;;;;;;;4.45;1.38;;;22.60;89.60;;;;;;4996407;28;20146;-78
2023/09/29 10:56:19;;;;;;;2.72;1.10;;;22.60;89.70;;;;;;4979383;28;20498;-77
2023/09/29 10:58:45;;;;;;;4.20;1.25;;;22.60;89.80;;;;;;4996926;28;20117;-77
2023/09/29 11:01:11;;;;;;;5.28;1.73;;;22.50;90.00;;;;;;4996887;28;20042;-81
2023/09/29 11:03:37;;;;;;;4.07;1.58;;;22.40;90.00;;;;;;4996994;28;20170;-82
2023/09/29 11:06:08;;;;;;;4.35;1.40;;;22.30;90.10;;;;;;4979218;28;20125;-82
2023/09/29 11:08:38;;;;;;;3.88;1.60;;;22.30;90.30;;;;;;4979081;28;20038;-82
2023/09/29 11:11:06;;;;;;;7.00;1.67;;;22.20;90.30;;;;;;4970627;28;20027;-82
2023/09/29 11:13:33;;;;;;;4.88;2.00;;;22.20;90.50;;;;;;4985717;28;20039;-82
2023/09/29 11:15:59;;;;;;;5.60;1.58;;;22.10;90.80;;;;;;4987192;28;20388;-81
2023/09/29 11:18:25;;;;;;;5.93;1.65;;;22.20;90.60;;;;;;4988042;28;20046;-83
2023/09/29 11:20:54;;;;;;;4.57;1.40;;;22.10;90.50;;;;;;4981339;28;20030;-82
2023/09/29 11:23:20;;;;;;;5.68;1.67;;;22.20;90.70;;;;;;4977913;28;20037;-82
2023/09/29 11:25:54;;;;;;;3.45;1.52;;;22.20;90.70;;;;;;4993064;28;20125;-81
2023/09/29 11:28:20;;;;;;;;;;;22.20;90.80;;;;;;4996772;28;20030;-82
2023/09/29 11:30:46;;;;;;;5.13;1.40;;;22.30;90.80;;;;;;4978431;28;19906;-83
2023/09/29 11:33:13;;;;;;;3.97;1.40;;;22.30;90.80;;;;;;4995980;28;20045;-81
2023/09/29 11:35:45;;;;;;;4.78;1.25;;;22.40;91.10;;;;;;4996518;28;20450;-77
2023/09/29 11:38:19;;;;;;;4.17;1.20;;;22.60;91.10;;;;;;4995611;28;20034;-77
2023/09/29 11:40:47;;;;;;;5.63;1.85;;;22.70;90.90;;;;;;4996141;28;20364;-77
2023/09/29 11:43:13;;;;;;;5.63;1.90;;;22.70;90.90;;;;;;4996167;28;20022;-78
2023/09/29 11:45:39;;;;;;;5.28;1.60;;;22.60;92.10;;;;;;4995341;28;20034;-77
2023/09/29 11:48:05;;;;;;;4.28;1.60;;;22.50;92.20;;;;;;4978182;28;20516;-77
2023/09/29 11:50:33;;;;;;;4.28;1.63;;;22.50;92.20;;;;;;4995469;28;20046;-78
2023/09/29 11:53:02;;;;;;;5.68;1.55;;;22.40;92.20;;;;;;4995858;28;20089;-77
2023/09/29 11:55:27;;;;;;;5.28;1.50;;;22.20;92.10;;;;;;4996136;28;20132;-79
2023/09/29 11:57:54;;;;;;;5.47;2.00;;;22.00;92.10;;;;;;4995409;28;20111;-80
2023/09/29 12:00:19;;;;;;;4.03;1.60;;;22.00;92.20;;;;;;4992314;28;20400;-82
2023/09/29 12:02:45;;;;;;;4.22;1.77;;;21.90;92.90;;;;;;4995971;28;20065;-80
2023/09/29 12:05:11;;;;;;;3.20;1.67;;;21.60;93.00;;;;;;4978597;28;20048;-82
2023/09/29 12:07:37;;;;;;;5.97;2.33;;;21.50;93.60;;;;;;4975918;28;20114;-81
2023/09/29 12:10:03;;;;;;;4.10;1.85;;;21.40;94.10;;;;;;4976067;28;20105;-83
2023/09/29 12:12:32;;;;;;;6.40;1.85;;;21.30;94.40;;;;;;4981005;28;20034;-79
2023/09/29 12:14:58;;;;;;;5.82;2.15;;;21.40;94.60;;;;;;4992683;28;20429;-83
2023/09/29 12:17:25;;;;;;;8.38;2.20;;;21.40;94.70;;;;;;4995301;28;20027;-81
2023/09/29 12:19:50;;;;;;;9.88;2.47;;;21.30;95.00;;;;;;4979182;28;20478;-81
2023/09/29 12:22:17;;;;;;;5.85;2.60;;;21.30;95.30;;;;;;4988126;28;20113;-81
2023/09/29 12:24:43;;;;;;;7.43;2.47;;;21.30;95.80;;;;;;4984724;28;20036;-82
2023/09/29 12:27:08;;;;;;;4.90;2.40;;;21.20;96.00;;;;;;4967341;28;20053;-81
2023/09/29 12:29:35;;;;;;;5.32;2.22;;;21.10;96.30;;;;;;4986631;28;20542;-80
2023/09/29 12:32:02;;;;;;;5.47;1.27;;;21.00;97.00;;;;;;4989085;28;20061;-80
2023/09/29 12:34:32;;;;;;;3.95;1.35;;;21.00;97.20;;;;;;4985781;28;20031;-82
2023/09/29 12:36:59;;;;;;;1.75;0.80;;;20.90;97.30;;;;;;4981492;28;20053;-82
2023/09/29 12:39:25;;;;;;;4.45;0.98;;;20.90;97.30;;;;;;4982328;28;20062;-81
2023/09/29 12:41:54;;;;;;;6.10;0.88;;;20.80;97.20;;;;;;4968691;28;20532;-81
2023/09/29 12:44:19;;;;;;;3.50;1.10;;;20.80;97.20;;;;;;4970147;28;20038;-81